Spry, Pennsylvania
Current Conditions -  °F | °C
As of 1:53 AM on Friday 28 Nov 2014 (Local Time) from KTHV Reporting Station
Clear Clear  
Wind Chill: 31°   Ceiling: Unl
Heat Index: 31°   Visibility: 10mi
Dew Point: 21°   Wind: 3mph
Humidity: 67%   Direction: 270°W
Pressure: 30.15"   Gusts: NA
Location:  39.9768°N, 76.6853°W
Report Text: KTHV 280653Z AUTO 27003KT 10SM CLR M01/M06 A3015 RMK AO2 SLP215 T10061061
Loading
Personal Weather Stations






























Interactive Weather Map New forecast layout! Learn more

10-Day Weather Forecast

Advertisements
Track Severe Weather on mobile